Time;durP1;ratioP1;P1;durP2;ratioP2;P2;SDS_P1;SDS_P2;PMS_P1;PMS_P2;Temp;Humidity;BMP_temperature;BMP_pressure;BME280_temperature;BME280_humidity;BME280_pressure;Samples;Min_cycle;Max_cycle;Signal;HPM_P1;HPM_P2
2021/04/18 00:02:11;;;;;;;6.37;5.77;;;6.30;99.90;;;;;;5096565;28;20450;-87
2021/04/18 00:04:39;;;;;;;7.43;6.80;;;6.30;99.90;;;;;;5107264;28;20453;-87
2021/04/18 00:07:05;;;;;;;7.27;6.57;;;6.30;99.90;;;;;;5108015;28;20475;-88
2021/04/18 00:09:32;;;;;;;7.00;6.40;;;6.40;99.90;;;;;;5102178;28;20412;-87
2021/04/18 00:11:58;;;;;;;7.30;6.70;;;6.30;99.90;;;;;;5095688;28;20455;-88
2021/04/18 00:14:25;;;;;;;7.27;6.67;;;6.40;99.90;;;;;;5090297;28;20434;-87
2021/04/18 01:00:10;;;;;;;8.90;8.00;;;6.10;99.90;;;;;;4946118;28;20809;-92
2021/04/18 01:02:38;;;;;;;8.77;7.97;;;6.10;99.90;;;;;;5035280;28;20496;-89
2021/04/18 01:05:06;;;;;;;8.47;7.67;;;5.90;99.90;;;;;;5035450;28;20565;-90
2021/04/18 01:07:34;;;;;;;8.23;7.47;;;5.90;99.90;;;;;;5081712;28;20476;-90
2021/04/18 01:10:01;;;;;;;8.70;7.90;;;5.90;99.90;;;;;;5098234;28;20460;-89
2021/04/18 01:12:27;;;;;;;9.40;8.53;;;5.90;99.90;;;;;;5101671;28;20446;-89
2021/04/18 01:14:53;;;;;;;10.03;9.07;;;6.00;99.90;;;;;;5103202;28;20457;-90
2021/04/18 01:17:20;;;;;;;9.27;8.47;;;6.00;99.90;;;;;;5107968;28;20526;-89
2021/04/18 01:19:48;;;;;;;9.70;8.80;;;6.00;99.90;;;;;;5095746;28;20450;-87
2021/04/18 01:22:16;;;;;;;9.30;8.60;;;6.10;99.90;;;;;;5093930;28;20454;-86
2021/04/18 01:24:43;;;;;;;9.47;8.57;;;6.10;99.90;;;;;;5094848;28;20454;-86
2021/04/18 01:27:11;;;;;;;9.43;8.43;;;6.10;99.90;;;;;;5094401;28;20478;-86
2021/04/18 01:29:38;;;;;;;9.30;8.20;;;6.10;99.90;;;;;;5094378;28;20462;-86
2021/04/18 01:32:06;;;;;;;9.20;8.40;;;6.10;99.90;;;;;;5094507;28;20460;-86
2021/04/18 01:34:34;;;;;;;9.53;8.67;;;6.10;99.90;;;;;;5103638;28;20536;-85
2021/04/18 01:37:01;;;;;;;8.50;7.73;;;6.10;99.90;;;;;;5114236;28;20480;-87
2021/04/18 01:39:29;;;;;;;9.77;8.90;;;6.20;99.90;;;;;;5114462;28;20450;-86
2021/04/18 01:41:56;;;;;;;8.70;8.00;;;6.10;99.90;;;;;;5114685;28;20463;-86
2021/04/18 01:44:23;;;;;;;9.60;8.80;;;6.10;99.90;;;;;;5105512;28;20499;-86
2021/04/18 01:46:51;;;;;;;10.73;9.83;;;6.20;99.90;;;;;;5093678;28;20568;-86
2021/04/18 01:49:18;;;;;;;10.33;9.43;;;6.20;99.90;;;;;;5093803;28;20538;-87
2021/04/18 01:51:45;;;;;;;10.67;9.67;;;6.20;99.90;;;;;;5093642;28;20565;-86
2021/04/18 01:54:12;;;;;;;9.57;8.77;;;6.30;99.90;;;;;;5098474;28;20537;-86
2021/04/18 01:56:40;;;;;;;9.50;8.40;;;6.30;99.90;;;;;;5093426;28;20833;-86
2021/04/18 01:59:07;;;;;;;9.17;8.20;;;6.30;99.90;;;;;;5093807;28;20486;-86
2021/04/18 02:01:38;;;;;;;8.60;8.00;;;6.30;99.90;;;;;;5095464;28;22570;-85
2021/04/18 02:04:21;;;;;;;10.93;9.93;;;6.30;99.90;;;;;;5094699;28;20451;-86
2021/04/18 02:06:49;;;;;;;10.37;9.50;;;6.40;99.90;;;;;;5093359;28;20481;-86
2021/04/18 02:09:16;;;;;;;10.83;9.87;;;6.50;99.90;;;;;;5105653;28;20431;-86
2021/04/18 02:11:46;;;;;;;8.83;8.00;;;6.50;99.90;;;;;;5119933;28;20469;-86
2021/04/18 02:14:13;;;;;;;9.80;9.00;;;6.50;99.90;;;;;;5115784;28;20458;-86
2021/04/18 02:16:41;;;;;;;10.30;9.50;;;6.50;99.90;;;;;;5124439;28;20454;-84
2021/04/18 02:19:08;;;;;;;10.03;9.13;;;6.40;99.90;;;;;;5138353;28;20472;-85
2021/04/18 02:21:35;;;;;;;9.07;8.27;;;6.30;99.90;;;;;;5133900;28;20460;-86
2021/04/18 02:24:03;;;;;;;10.80;9.70;;;6.40;99.90;;;;;;5113265;28;20501;-85
2021/04/18 02:26:30;;;;;;;10.67;9.77;;;6.30;99.90;;;;;;5105744;28;20560;-86
2021/04/18 02:28:58;;;;;;;10.03;9.03;;;6.20;99.90;;;;;;5102373;28;20509;-86
2021/04/18 02:31:25;;;;;;;10.07;9.17;;;6.20;99.90;;;;;;5109198;28;20453;-85
2021/04/18 02:33:52;;;;;;;10.17;9.20;;;6.20;99.90;;;;;;5130457;28;20492;-86
2021/04/18 02:37:09;;;;;;;11.13;10.07;;;6.20;99.90;;;;;;5140611;22;20528;-86
2021/04/18 08:13:29;;;;;;;11.60;10.60;;;9.40;91.60;;;;;;4912276;29;20494;-87
2021/04/18 09:18:52;;;;;;;9.37;8.20;;;10.90;84.20;;;;;;4975425;28;20535;-87
2021/04/18 09:21:55;;;;;;;10.20;9.20;;;11.00;82.80;;;;;;4998222;28;20447;-87
2021/04/18 09:41:44;;;;;;;10.43;8.90;;;11.60;79.30;;;;;;4856283;29;20449;-87
2021/04/18 09:44:47;;;;;;;9.00;8.10;;;12.10;78.70;;;;;;4947226;29;20432;-88
2021/04/18 09:58:08;;;;;;;10.50;9.50;;;13.30;72.90;;;;;;4914885;29;20463;-87
2021/04/18 10:25:56;;;;;;;;;;;;;;;;;;;;;
2021/04/18 10:46:37;;;;;;;12.53;10.47;;;15.30;60.50;;;;;;5129451;27;20449;-87
2021/04/18 11:08:11;;;;;;;10.93;9.83;;;16.00;59.50;;;;;;4982730;28;20477;-87
2021/04/18 12:18:34;;;;;;;12.93;10.57;;;13.30;66.30;;;;;;5139543;22;20489;-87
2021/04/18 12:23:57;;;;;;;10.97;9.87;;;12.90;66.50;;;;;;5094553;28;20874;-87
2021/04/18 12:26:40;;;;;;;10.13;9.23;;;13.30;67.30;;;;;;5092647;28;20456;-91
2021/04/18 12:29:06;;;;;;;10.50;9.40;;;14.10;66.60;;;;;;5090041;28;20527;-85
2021/04/18 12:31:53;;;;;;;9.83;8.93;;;16.50;61.70;;;;;;5102965;28;20466;-87
2021/04/18 12:34:20;;;;;;;11.10;10.00;;;17.30;56.50;;;;;;5107732;28;20673;-85
2021/04/18 12:36:48;;;;;;;8.77;7.90;;;17.50;56.10;;;;;;5108072;28;20526;-84
2021/04/18 12:39:15;;;;;;;9.30;8.53;;;17.40;55.70;;;;;;5108092;28;20509;-85
2021/04/18 12:41:41;;;;;;;9.63;8.73;;;16.90;55.70;;;;;;5098478;28;20437;-87
2021/04/18 12:44:59;;;;;;;9.37;8.57;;;16.00;57.20;;;;;;5091354;28;20443;-87
2021/04/18 12:47:28;;;;;;;10.27;9.47;;;15.50;58.10;;;;;;4973830;28;20455;-87
2021/04/18 12:49:56;;;;;;;11.03;10.03;;;15.00;59.80;;;;;;5027024;28;20453;-86
2021/04/18 12:52:35;;;;;;;9.80;9.00;;;14.90;61.00;;;;;;5104947;28;20454;-87
2021/04/18 12:55:03;;;;;;;10.57;9.43;;;14.80;61.00;;;;;;5091085;28;20440;-86
2021/04/18 12:57:37;;;;;;;10.07;8.90;;;15.20;61.20;;;;;;5090688;28;20462;-89
2021/04/18 13:00:25;;;;;;;11.07;9.97;;;15.50;59.90;;;;;;5088309;28;20549;-87
2021/04/18 13:02:51;;;;;;;9.90;8.90;;;15.60;59.10;;;;;;5096994;28;20525;-88
2021/04/18 13:05:19;;;;;;;9.87;8.97;;;15.60;58.40;;;;;;5096737;28;20461;-87
2021/04/18 13:07:46;;;;;;;9.03;8.23;;;15.70;58.50;;;;;;5098117;28;20887;-84
2021/04/18 13:10:28;;;;;;;9.97;9.17;;;15.40;58.20;;;;;;5090426;28;20432;-91
2021/04/18 13:12:55;;;;;;;9.23;8.43;;;14.60;59.00;;;;;;5086365;28;20938;-84
2021/04/18 13:15:22;;;;;;;10.20;9.20;;;14.50;60.30;;;;;;5082703;28;20503;-84
2021/04/18 13:17:49;;;;;;;10.13;8.77;;;14.70;61.00;;;;;;5086304;28;20467;-85
2021/04/18 13:20:16;;;;;;;10.10;9.10;;;15.30;60.50;;;;;;5095608;28;20498;-86
2021/04/18 13:22:43;;;;;;;8.70;7.90;;;15.70;59.50;;;;;;5103428;28;20451;-84
2021/04/18 13:25:12;;;;;;;10.70;8.57;;;16.00;58.30;;;;;;5115075;28;20415;-85
2021/04/18 13:27:40;;;;;;;9.43;8.53;;;16.00;57.60;;;;;;5109540;28;20469;-84
2021/04/18 13:30:09;;;;;;;9.90;8.53;;;16.00;57.20;;;;;;5115442;28;20440;-86
2021/04/18 13:32:35;;;;;;;10.63;8.47;;;16.00;57.60;;;;;;5107818;28;20527;-86
2021/04/18 13:35:03;;;;;;;8.90;8.13;;;16.00;57.70;;;;;;5103805;28;20466;-86
2021/04/18 13:37:29;;;;;;;8.97;8.20;;;15.80;57.50;;;;;;5102700;28;20499;-84
2021/04/18 13:39:56;;;;;;;9.07;8.17;;;15.30;58.00;;;;;;5109243;28;20465;-84
2021/04/18 13:42:23;;;;;;;8.27;7.50;;;14.90;58.60;;;;;;5118425;28;20429;-84
2021/04/18 13:44:49;;;;;;;10.17;9.17;;;14.70;58.90;;;;;;5114070;28;20436;-84
2021/04/18 13:47:16;;;;;;;9.60;8.70;;;14.70;59.60;;;;;;5117546;28;20474;-85
2021/04/18 13:49:42;;;;;;;9.03;8.20;;;14.60;59.80;;;;;;5100465;28;20450;-84
2021/04/18 13:52:09;;;;;;;8.87;8.00;;;14.40;59.80;;;;;;5106089;28;20423;-84
2021/04/18 13:54:35;;;;;;;10.00;8.53;;;14.20;60.40;;;;;;5102428;28;20478;-85
2021/04/18 13:57:03;;;;;;;10.90;9.80;;;14.10;60.80;;;;;;5102924;28;20480;-85
2021/04/18 13:59:30;;;;;;;9.30;8.43;;;14.10;60.90;;;;;;5099217;28;20509;-85
2021/04/18 14:01:56;;;;;;;8.43;7.60;;;14.10;60.80;;;;;;5096852;28;20452;-85
2021/04/18 14:04:22;;;;;;;8.97;7.87;;;14.20;60.20;;;;;;5102789;28;20444;-84
2021/04/18 14:06:48;;;;;;;9.33;8.43;;;14.20;60.00;;;;;;5100829;28;21102;-84
2021/04/18 14:09:15;;;;;;;9.90;8.90;;;14.00;60.90;;;;;;5097288;28;20443;-85
2021/04/18 14:11:41;;;;;;;9.60;8.23;;;13.80;61.80;;;;;;5095335;28;20954;-86
2021/04/18 14:14:08;;;;;;;10.47;9.40;;;13.80;62.50;;;;;;5097117;28;20448;-85
2021/04/18 14:16:35;;;;;;;9.80;8.90;;;13.80;62.80;;;;;;5095812;28;20469;-85
2021/04/18 14:19:01;;;;;;;10.10;9.10;;;13.40;62.60;;;;;;5097589;28;20489;-85
2021/04/18 14:21:27;;;;;;;11.60;8.93;;;13.50;64.00;;;;;;5101103;28;20538;-84
2021/04/18 14:23:54;;;;;;;9.60;8.77;;;13.70;64.20;;;;;;5099279;28;20437;-85
2021/04/18 14:26:23;;;;;;;11.90;8.93;;;13.60;62.80;;;;;;5099140;28;20451;-84
2021/04/18 14:28:49;;;;;;;10.63;8.97;;;13.60;63.60;;;;;;5099534;28;20439;-84
2021/04/18 14:31:17;;;;;;;14.83;9.87;;;13.50;63.80;;;;;;5103906;28;20446;-84
2021/04/18 14:33:46;;;;;;;10.50;9.10;;;13.60;64.80;;;;;;5112773;28;20453;-84
2021/04/18 14:36:15;;;;;;;10.20;9.07;;;13.70;64.50;;;;;;5111782;28;20490;-85
2021/04/18 14:38:41;;;;;;;10.03;9.03;;;14.00;64.00;;;;;;5108403;28;20479;-83
2021/04/18 14:41:07;;;;;;;8.90;8.00;;;14.20;62.50;;;;;;5110416;28;20448;-84
2021/04/18 14:43:34;;;;;;;9.50;8.60;;;14.50;62.30;;;;;;5103780;28;20446;-84
2021/04/18 14:46:00;;;;;;;10.30;9.33;;;14.80;61.20;;;;;;5100982;28;20458;-84
2021/04/18 14:48:27;;;;;;;11.70;8.67;;;15.00;60.20;;;;;;5100564;28;20469;-84
2021/04/18 14:50:55;;;;;;;10.27;9.27;;;15.30;59.80;;;;;;5100078;28;20469;-84
2021/04/18 14:53:22;;;;;;;10.37;8.80;;;15.50;59.20;;;;;;5098680;28;20447;-84
2021/04/18 14:55:48;;;;;;;12.17;10.40;;;15.30;58.60;;;;;;5099604;28;20462;-85
2021/04/18 14:58:15;;;;;;;10.13;9.13;;;15.00;59.20;;;;;;5101330;28;20458;-84
2021/04/18 15:00:41;;;;;;;9.23;8.30;;;14.80;59.90;;;;;;5101101;28;20446;-84
2021/04/18 15:03:07;;;;;;;10.23;9.23;;;14.70;60.70;;;;;;5105401;28;20446;-84
2021/04/18 15:05:34;;;;;;;10.13;9.13;;;14.70;61.10;;;;;;5113711;28;20436;-84
2021/04/18 15:08:01;;;;;;;10.10;9.00;;;14.70;61.10;;;;;;5108272;28;20462;-84
2021/04/18 15:10:27;;;;;;;9.37;8.30;;;14.60;61.00;;;;;;5099781;28;20451;-84
2021/04/18 15:12:54;;;;;;;11.03;9.83;;;14.70;61.10;;;;;;5110581;28;20449;-85
2021/04/18 15:15:21;;;;;;;10.80;9.80;;;14.50;60.80;;;;;;5099173;28;20434;-85
2021/04/18 15:17:48;;;;;;;10.13;9.13;;;14.60;61.40;;;;;;5105258;28;20496;-84
2021/04/18 15:20:15;;;;;;;10.63;9.30;;;14.40;61.30;;;;;;5101759;28;20497;-84
2021/04/18 15:22:43;;;;;;;11.07;10.03;;;14.30;62.00;;;;;;5101145;28;20450;-84
2021/04/18 15:25:11;;;;;;;10.33;9.40;;;14.10;62.70;;;;;;5101271;28;20478;-86
2021/04/18 15:27:37;;;;;;;10.60;9.60;;;14.10;62.90;;;;;;5111974;28;20533;-84
2021/04/18 15:30:05;;;;;;;11.17;10.07;;;13.90;63.70;;;;;;5108451;28;20438;-84
2021/04/18 15:32:32;;;;;;;11.93;10.17;;;13.80;64.20;;;;;;5103416;28;20449;-85
2021/04/18 15:34:59;;;;;;;10.80;9.70;;;13.50;64.60;;;;;;5103656;28;20442;-84
2021/04/18 15:37:25;;;;;;;11.90;9.87;;;13.40;65.10;;;;;;5109831;28;20466;-82
2021/04/18 15:39:52;;;;;;;11.00;9.93;;;13.30;65.60;;;;;;5100886;28;20470;-86
2021/04/18 15:42:19;;;;;;;10.37;9.40;;;13.30;66.00;;;;;;5100889;28;20445;-85
2021/04/18 15:44:45;;;;;;;10.90;9.80;;;13.30;66.50;;;;;;5102753;28;20455;-85
2021/04/18 15:47:13;;;;;;;12.70;10.17;;;13.30;66.30;;;;;;5114135;28;20492;-84
2021/04/18 15:49:40;;;;;;;12.43;11.10;;;13.20;66.90;;;;;;5120440;28;20494;-85
2021/04/18 15:52:06;;;;;;;12.93;11.13;;;13.20;67.30;;;;;;5114385;28;20452;-85
2021/04/18 15:54:33;;;;;;;12.73;11.03;;;13.20;67.80;;;;;;5113153;28;20499;-83
2021/04/18 15:57:00;;;;;;;12.50;11.20;;;13.20;67.30;;;;;;5112673;28;20834;-84
2021/04/18 15:59:27;;;;;;;12.43;10.80;;;13.30;67.30;;;;;;5112092;28;20481;-85
2021/04/18 16:01:54;;;;;;;12.17;10.03;;;13.40;67.30;;;;;;5108809;28;20511;-85
2021/04/18 16:04:26;;;;;;;10.30;9.30;;;13.40;66.60;;;;;;5106568;28;20447;-84
2021/04/18 16:06:52;;;;;;;11.43;10.33;;;13.30;66.50;;;;;;5105154;28;20533;-86
2021/04/18 16:09:18;;;;;;;11.27;10.13;;;13.40;66.70;;;;;;5106154;28;20450;-85
2021/04/18 16:11:45;;;;;;;11.47;10.30;;;13.20;66.70;;;;;;5102785;28;20446;-85
2021/04/18 16:14:12;;;;;;;11.83;10.67;;;13.10;66.70;;;;;;5106783;28;20443;-84
2021/04/18 16:16:38;;;;;;;16.80;10.57;;;13.00;67.50;;;;;;5101865;28;20476;-86
2021/04/18 16:19:05;;;;;;;11.23;10.07;;;12.90;68.50;;;;;;5100791;28;20472;-85
2021/04/18 16:21:32;;;;;;;11.93;9.97;;;12.90;68.00;;;;;;5103177;28;20878;-85
2021/04/18 16:23:59;;;;;;;13.60;11.63;;;12.80;68.60;;;;;;5099081;28;20858;-84
2021/04/18 16:26:26;;;;;;;14.63;11.57;;;12.70;69.20;;;;;;5098275;28;20450;-83
2021/04/18 16:28:53;;;;;;;13.30;10.63;;;12.60;69.50;;;;;;5112875;28;20449;-83
2021/04/18 16:31:20;;;;;;;13.10;11.63;;;12.60;70.10;;;;;;5103823;28;20444;-84
2021/04/18 16:33:46;;;;;;;13.70;12.30;;;12.50;70.20;;;;;;5113056;28;20432;-85
2021/04/18 16:36:12;;;;;;;13.53;10.67;;;12.50;70.60;;;;;;5106959;28;20434;-85
2021/04/18 16:38:39;;;;;;;13.17;11.80;;;12.50;71.00;;;;;;5102050;28;20447;-85
2021/04/18 16:41:05;;;;;;;13.30;11.90;;;12.50;70.90;;;;;;5105741;28;20446;-85
2021/04/18 16:43:31;;;;;;;13.30;11.90;;;12.50;70.80;;;;;;5099657;28;20435;-84
2021/04/18 16:45:58;;;;;;;13.17;11.90;;;12.50;70.60;;;;;;5099100;28;20460;-86
2021/04/18 16:48:25;;;;;;;14.20;11.00;;;12.50;70.80;;;;;;5098689;28;20838;-85
2021/04/18 16:50:51;;;;;;;15.73;13.17;;;12.40;71.10;;;;;;5098911;28;20489;-85
2021/04/18 16:53:18;;;;;;;12.23;11.03;;;12.40;71.30;;;;;;5108558;28;20431;-86
2021/04/18 16:55:44;;;;;;;13.80;12.23;;;12.40;71.30;;;;;;5115352;28;20468;-84
2021/04/18 16:58:10;;;;;;;14.80;11.70;;;12.30;71.40;;;;;;5100815;28;20467;-83
2021/04/18 17:00:37;;;;;;;12.70;11.30;;;12.30;71.90;;;;;;5102869;28;20470;-84
2021/04/18 17:03:04;;;;;;;16.23;13.00;;;12.30;72.00;;;;;;5107931;28;20455;-84
2021/04/18 17:05:31;;;;;;;13.97;11.97;;;12.30;72.30;;;;;;5105066;28;20451;-85
2021/04/18 17:07:57;;;;;;;18.47;12.77;;;12.30;72.50;;;;;;5102192;28;20467;-86
2021/04/18 17:10:24;;;;;;;13.47;12.00;;;12.30;72.70;;;;;;5101204;28;20451;-84
2021/04/18 17:12:51;;;;;;;18.27;14.00;;;12.40;72.80;;;;;;5100675;28;20454;-84
2021/04/18 17:15:17;;;;;;;15.30;11.90;;;12.40;72.70;;;;;;5103685;28;20977;-84
2021/04/18 17:17:43;;;;;;;15.77;12.53;;;12.40;72.70;;;;;;5101952;28;20528;-84
2021/04/18 17:20:12;;;;;;;13.57;12.13;;;12.50;72.60;;;;;;5100520;28;20547;-84
2021/04/18 17:22:39;;;;;;;15.23;13.40;;;12.50;72.40;;;;;;5100769;28;20478;-84
2021/04/18 17:25:08;;;;;;;14.60;13.10;;;12.50;72.30;;;;;;5099742;28;20439;-84
2021/04/18 17:27:34;;;;;;;14.27;11.80;;;12.50;72.30;;;;;;5098341;28;20534;-85
2021/04/18 17:30:01;;;;;;;14.33;12.83;;;12.50;72.30;;;;;;5100189;28;20447;-84
2021/04/18 17:32:27;;;;;;;15.60;12.50;;;12.40;72.80;;;;;;5100001;28;20450;-84
2021/04/18 17:34:53;;;;;;;14.70;13.20;;;12.40;73.00;;;;;;5110679;28;20447;-84
2021/04/18 17:37:19;;;;;;;15.63;12.23;;;12.40;72.90;;;;;;5113768;28;20491;-83
2021/04/18 17:39:47;;;;;;;16.20;14.63;;;12.30;73.00;;;;;;5105435;28;20477;-84
2021/04/18 17:42:13;;;;;;;15.13;13.10;;;12.30;73.20;;;;;;5111214;28;20438;-84
2021/04/18 17:44:39;;;;;;;15.90;10.83;;;12.20;72.80;;;;;;5111001;28;20816;-84
2021/04/18 17:47:05;;;;;;;15.43;12.40;;;12.20;72.80;;;;;;5101282;28;20466;-84
2021/04/18 17:49:32;;;;;;;16.93;12.70;;;12.20;73.60;;;;;;5113416;28;20442;-83
2021/04/18 17:51:58;;;;;;;15.90;13.10;;;12.10;73.80;;;;;;5116217;28;20595;-86
2021/04/18 17:54:24;;;;;;;16.53;13.37;;;11.90;74.20;;;;;;5116616;28;20448;-81
2021/04/18 17:56:51;;;;;;;18.90;13.57;;;11.90;74.30;;;;;;5108329;28;20456;-83
2021/04/18 17:59:18;;;;;;;15.07;12.53;;;11.80;74.50;;;;;;5103669;28;20464;-84
2021/04/18 18:01:44;;;;;;;14.27;12.07;;;11.80;74.70;;;;;;5094346;28;20456;-85
2021/04/18 18:04:11;;;;;;;25.40;18.70;;;11.80;74.70;;;;;;5087095;28;20436;-84
2021/04/18 18:06:37;;;;;;;28.63;20.40;;;11.70;75.00;;;;;;5087045;28;20468;-84
2021/04/18 18:09:04;;;;;;;42.40;28.10;;;11.80;75.80;;;;;;5088599;28;20438;-84
2021/04/18 18:11:31;;;;;;;91.73;50.07;;;11.80;76.10;;;;;;5088853;28;21213;-84
2021/04/18 18:13:58;;;;;;;77.00;46.20;;;11.80;75.70;;;;;;5084828;28;20923;-84
2021/04/18 18:16:24;;;;;;;75.43;44.97;;;11.70;75.20;;;;;;5089374;28;20434;-82
2021/04/18 18:18:51;;;;;;;28.37;20.70;;;11.70;75.60;;;;;;5095355;28;21075;-86
2021/04/18 18:21:17;;;;;;;26.30;20.93;;;11.70;76.00;;;;;;5107792;22;20430;-86
2021/04/18 18:23:43;;;;;;;19.67;16.90;;;11.60;75.70;;;;;;5110335;28;20954;-85
2021/04/18 18:26:11;;;;;;;24.10;18.80;;;11.60;75.60;;;;;;5112464;28;20418;-85
2021/04/18 18:28:38;;;;;;;25.53;19.87;;;11.60;75.90;;;;;;5114533;28;20431;-84
2021/04/18 18:31:05;;;;;;;28.40;18.20;;;11.60;76.10;;;;;;5110678;28;20446;-85
2021/04/18 18:33:31;;;;;;;18.30;15.37;;;11.50;76.40;;;;;;5108559;28;20429;-85
2021/04/18 18:35:57;;;;;;;14.90;12.70;;;11.50;77.00;;;;;;5110556;28;20794;-86
2021/04/18 18:38:24;;;;;;;15.27;13.67;;;11.50;77.20;;;;;;5119911;28;20438;-88
2021/04/18 18:40:51;;;;;;;18.73;13.90;;;11.50;77.20;;;;;;5128998;28;20461;-90
2021/04/18 18:43:21;;;;;;;17.93;14.73;;;11.40;77.50;;;;;;5136892;28;20517;-90
2021/04/18 18:45:57;;;;;;;15.27;12.40;;;11.50;77.40;;;;;;5121626;28;20525;-84
2021/04/18 18:59:17;;;;;;;12.90;11.43;;;11.50;76.70;;;;;;4934013;29;20451;-90
2021/04/18 21:42:51;;;;;;;20.40;16.63;;;10.00;88.30;;;;;;4780372;29;21026;-87
